createdAt,value
2023-03-06T00:00:04.055Z,9.43
2023-03-06T00:02:31.885Z,8.33
2023-03-06T00:04:59.676Z,8.07
2023-03-06T00:07:27.709Z,9.47
2023-03-06T00:09:55.609Z,9.47
2023-03-06T00:12:23.416Z,9.33
2023-03-06T00:14:51.072Z,9.97
2023-03-06T00:17:20.629Z,9.03
2023-03-06T00:19:48.428Z,9.53
2023-03-06T00:22:16.534Z,9.77
2023-03-06T00:24:44.460Z,10.07
2023-03-06T00:27:12.201Z,10.10
2023-03-06T00:29:39.938Z,9.60
2023-03-06T00:32:09.285Z,9.63
2023-03-06T00:34:40.084Z,9.50
2023-03-06T00:37:08.308Z,10.13
2023-03-06T00:39:36.170Z,10.50
2023-03-06T00:42:04.052Z,11.03
2023-03-06T00:44:32.096Z,11.13
2023-03-06T00:46:59.964Z,11.63
2023-03-06T00:49:27.706Z,11.67
2023-03-06T00:51:56.870Z,11.70
2023-03-06T00:54:24.568Z,12.40
2023-03-06T00:56:52.909Z,13.00
2023-03-06T00:59:20.614Z,13.10
2023-03-06T01:01:50.740Z,13.17
2023-03-06T01:04:18.705Z,13.10
2023-03-06T01:06:46.567Z,13.07
2023-03-06T01:09:16.079Z,12.67
2023-03-06T01:11:44.649Z,12.60
2023-03-06T01:14:12.630Z,13.47
2023-03-06T01:16:40.874Z,11.63
2023-03-06T01:19:08.678Z,13.23
2023-03-06T01:21:36.617Z,13.97
2023-03-06T01:24:05.086Z,13.23
2023-03-06T01:26:34.765Z,13.27
2023-03-06T01:29:02.533Z,13.70
2023-03-06T01:31:30.713Z,14.33
2023-03-06T01:33:58.480Z,14.23
2023-03-06T01:36:26.298Z,14.23
2023-03-06T01:38:54.187Z,14.10
2023-03-06T01:41:22.187Z,14.50
2023-03-06T01:43:51.738Z,14.00
2023-03-06T01:46:38.976Z,12.70
2023-03-06T01:49:08.960Z,12.97
2023-03-06T01:51:37.946Z,13.57
2023-03-06T01:54:08.102Z,15.07
2023-03-06T01:56:36.134Z,14.50
2023-03-06T01:59:06.145Z,13.40
2023-03-06T02:01:34.469Z,12.73
2023-03-06T02:04:02.883Z,14.20
2023-03-06T02:06:30.529Z,11.83
2023-03-06T02:08:58.319Z,13.43
2023-03-06T02:11:26.433Z,14.07
2023-03-06T02:13:55.269Z,13.37
2023-03-06T02:16:25.882Z,11.63
2023-03-06T02:18:53.990Z,12.87
2023-03-06T02:21:25.798Z,12.57
2023-03-06T02:24:01.101Z,12.23
2023-03-06T02:26:31.206Z,13.60
2023-03-06T02:28:59.443Z,13.17
2023-03-06T02:31:29.478Z,13.63
2023-03-06T02:34:04.732Z,11.87
2023-03-06T02:36:33.083Z,12.50
2023-03-06T02:39:01.178Z,12.43
2023-03-06T02:41:30.669Z,11.67
2023-03-06T02:43:58.485Z,12.23
2023-03-06T02:46:26.397Z,12.87
2023-03-06T02:48:54.298Z,12.30
2023-03-06T02:51:23.951Z,13.67
2023-03-06T02:53:51.818Z,13.00
2023-03-06T02:56:20.381Z,13.07
2023-03-06T02:58:50.036Z,11.70
2023-03-06T03:01:17.858Z,12.80
2023-03-06T03:03:45.681Z,13.33
2023-03-06T03:06:13.412Z,11.80
2023-03-06T03:08:41.320Z,13.23
2023-03-06T03:11:09.650Z,12.30
2023-03-06T03:13:38.911Z,14.20
2023-03-06T03:16:09.126Z,13.13
2023-03-06T03:18:37.294Z,12.53
2023-03-06T03:21:08.776Z,12.90
2023-03-06T03:23:36.840Z,13.03
2023-03-06T03:26:08.446Z,14.07
2023-03-06T03:28:39.060Z,13.90
2023-03-06T03:31:09.302Z,13.83
2023-03-06T03:33:37.556Z,13.77
2023-03-06T03:36:06.584Z,12.83
2023-03-06T03:38:35.186Z,13.67
2023-03-06T03:41:04.401Z,13.77
2023-03-06T03:43:32.240Z,13.23
2023-03-06T03:46:00.263Z,11.13
2023-03-06T03:48:29.436Z,13.20
2023-03-06T03:50:57.121Z,14.23
2023-03-06T03:53:24.880Z,14.27
2023-03-06T03:55:52.697Z,13.90
2023-03-06T03:58:20.525Z,13.97
2023-03-06T04:00:48.486Z,14.63
2023-03-06T04:03:16.323Z,13.80
2023-03-06T04:05:45.663Z,14.43
2023-03-06T04:08:13.494Z,13.73
2023-03-06T04:10:41.386Z,14.47
2023-03-06T04:13:10.284Z,12.63
2023-03-06T04:15:38.729Z,12.73
2023-03-06T04:18:06.803Z,12.53
2023-03-06T04:20:35.558Z,13.57
2023-03-06T04:23:04.706Z,12.80
2023-03-06T04:25:32.474Z,14.80
2023-03-06T04:28:00.525Z,14.63
2023-03-06T04:30:28.291Z,13.33
2023-03-06T04:32:56.033Z,15.03
2023-03-06T04:35:24.008Z,14.53
2023-03-06T04:37:51.955Z,13.87
2023-03-06T04:40:22.356Z,13.67
2023-03-06T04:42:51.901Z,14.30
2023-03-06T04:45:20.668Z,13.60
2023-03-06T04:47:48.654Z,12.90
2023-03-06T04:50:16.903Z,14.47
2023-03-06T04:52:45.260Z,12.93
2023-03-06T04:55:15.391Z,13.13
2023-03-06T04:57:45.518Z,13.47
2023-03-06T05:00:15.377Z,11.73
2023-03-06T05:02:44.124Z,13.17
2023-03-06T05:05:12.642Z,14.20
2023-03-06T05:07:42.185Z,13.43
2023-03-06T05:10:12.585Z,13.13
2023-03-06T05:12:41.501Z,12.10
2023-03-06T05:15:14.585Z,14.03
2023-03-06T05:17:42.648Z,14.73
2023-03-06T05:20:11.222Z,13.67
2023-03-06T05:22:39.320Z,13.17
2023-03-06T05:25:07.611Z,13.73
2023-03-06T05:27:35.588Z,13.40
2023-03-06T05:30:04.063Z,13.80
2023-03-06T05:32:35.589Z,12.87
2023-03-06T05:35:03.788Z,12.60
2023-03-06T05:37:31.637Z,12.30
2023-03-06T05:40:00.050Z,12.43
2023-03-06T05:42:28.870Z,11.83
2023-03-06T05:44:57.052Z,11.57
2023-03-06T05:47:24.804Z,12.77
2023-03-06T05:49:54.363Z,12.70
2023-03-06T05:52:22.383Z,12.83
2023-03-06T05:54:52.027Z,13.00
2023-03-06T05:57:20.143Z,12.80
2023-03-06T05:59:49.049Z,14.17
2023-03-06T06:02:16.898Z,13.20
2023-03-06T06:04:45.586Z,12.73
2023-03-06T06:07:16.559Z,13.73
2023-03-06T06:09:45.769Z,12.43
2023-03-06T06:12:14.907Z,12.23
2023-03-06T06:14:43.116Z,12.53
2023-03-06T06:17:12.705Z,13.77
2023-03-06T06:19:40.755Z,11.73
2023-03-06T06:22:08.509Z,11.50
2023-03-06T06:24:37.862Z,10.93
2023-03-06T06:27:06.084Z,11.67
2023-03-06T06:29:34.038Z,10.37
2023-03-06T06:32:02.664Z,10.30
2023-03-06T06:34:32.029Z,10.13
2023-03-06T06:37:00.198Z,12.80
2023-03-06T06:39:29.175Z,11.03
2023-03-06T06:42:26.048Z,10.17
2023-03-06T06:44:48.580Z,10.97
2023-03-06T06:47:25.317Z,11.10
2023-03-06T06:49:53.894Z,10.10
2023-03-06T06:52:22.547Z,10.53
2023-03-06T06:54:50.339Z,10.13
2023-03-06T06:57:19.828Z,10.23
2023-03-06T06:59:47.581Z,9.80
2023-03-06T07:02:16.907Z,11.07
2023-03-06T07:05:01.952Z,11.30
2023-03-06T07:07:31.598Z,11.47
2023-03-06T07:09:59.499Z,11.33
2023-03-06T07:12:32.716Z,11.37
2023-03-06T07:15:00.453Z,12.00
2023-03-06T07:17:28.397Z,11.00
2023-03-06T07:19:56.915Z,12.00
2023-03-06T07:22:24.928Z,11.20
2023-03-06T07:24:52.769Z,12.90
2023-03-06T07:27:20.733Z,11.83
2023-03-06T07:29:50.233Z,10.97
2023-03-06T07:32:17.986Z,10.73
2023-03-06T07:34:46.593Z,9.63
2023-03-06T07:37:14.834Z,11.20
2023-03-06T07:39:42.617Z,10.30
2023-03-06T07:42:11.167Z,9.03
2023-03-06T07:44:39.980Z,9.30
2023-03-06T07:47:09.727Z,10.10
2023-03-06T07:49:37.730Z,9.53
2023-03-06T07:52:05.784Z,10.73
2023-03-06T07:54:35.290Z,10.73
2023-03-06T07:57:03.306Z,10.53
2023-03-06T07:59:31.204Z,11.10
2023-03-06T08:01:58.990Z,11.73
2023-03-06T08:04:29.119Z,12.87
2023-03-06T08:07:00.292Z,12.30
2023-03-06T08:09:28.638Z,11.27
2023-03-06T08:11:56.651Z,11.83
2023-03-06T08:14:25.283Z,11.43
2023-03-06T08:16:53.300Z,11.20
2023-03-06T08:19:21.189Z,11.03
2023-03-06T08:21:50.467Z,13.17
2023-03-06T08:24:18.740Z,12.90
2023-03-06T08:26:47.246Z,11.93
2023-03-06T08:29:15.695Z,10.67
2023-03-06T08:31:44.659Z,11.87
2023-03-06T08:34:13.990Z,8.77
2023-03-06T08:36:43.193Z,11.87
2023-03-06T08:39:13.413Z,12.67
2023-03-06T08:41:42.128Z,11.43
2023-03-06T08:44:10.239Z,12.70
2023-03-06T08:46:38.555Z,10.77
2023-03-06T08:49:06.561Z,11.97
2023-03-06T08:51:34.509Z,11.80
2023-03-06T08:54:02.522Z,11.90
2023-03-06T08:56:32.965Z,10.23
2023-03-06T08:59:01.418Z,11.87
2023-03-06T09:01:30.281Z,11.47
2023-03-06T09:03:58.987Z,12.33
2023-03-06T09:06:27.561Z,10.97
2023-03-06T09:08:56.634Z,11.57
2023-03-06T09:11:25.417Z,12.03
2023-03-06T09:13:56.021Z,10.87
2023-03-06T09:16:24.101Z,11.50
2023-03-06T09:18:54.040Z,12.17
2023-03-06T09:21:22.155Z,12.23
2023-03-06T09:23:50.853Z,11.53
2023-03-06T09:26:18.901Z,12.83
2023-03-06T09:28:47.018Z,11.83
2023-03-06T09:31:17.778Z,12.00
2023-03-06T09:33:46.065Z,11.97
2023-03-06T09:36:16.254Z,12.83
2023-03-06T09:38:44.030Z,12.40
2023-03-06T09:41:23.764Z,12.83
2023-03-06T09:43:52.874Z,13.67
2023-03-06T09:46:27.032Z,12.67
2023-03-06T09:48:59.389Z,12.93
2023-03-06T09:51:31.887Z,11.83
2023-03-06T09:54:04.248Z,12.80
2023-03-06T09:56:34.229Z,12.60
2023-03-06T09:59:06.233Z,11.40
2023-03-06T10:01:37.032Z,11.73
2023-03-06T10:04:10.819Z,11.50
2023-03-06T10:06:42.725Z,12.20
2023-03-06T10:09:16.001Z,12.20
2023-03-06T10:11:46.186Z,10.67
2023-03-06T10:14:18.627Z,11.63
2023-03-06T10:16:48.228Z,10.63
2023-03-06T10:19:17.029Z,10.80
2023-03-06T10:21:48.753Z,11.60
2023-03-06T10:24:21.057Z,11.10
2023-03-06T10:26:51.424Z,10.03
2023-03-06T10:29:26.269Z,12.03
2023-03-06T10:32:02.606Z,11.90
2023-03-06T10:34:31.988Z,11.10
2023-03-06T10:37:00.180Z,10.50
2023-03-06T10:39:29.350Z,10.03
2023-03-06T10:41:57.108Z,11.97
2023-03-06T10:44:25.321Z,9.90
2023-03-06T10:46:54.794Z,9.67
2023-03-06T10:49:32.154Z,11.40
2023-03-06T10:52:02.098Z,9.90
2023-03-06T10:54:30.408Z,9.43
2023-03-06T10:56:58.085Z,10.27
2023-03-06T10:59:28.650Z,9.60
2023-03-06T11:01:59.400Z,9.47
2023-03-06T11:04:29.414Z,9.37
2023-03-06T11:07:07.904Z,7.67
2023-03-06T11:09:36.611Z,8.83
2023-03-06T11:12:22.135Z,8.03
2023-03-06T11:15:08.132Z,9.93
2023-03-06T11:17:36.830Z,8.83
2023-03-06T11:20:17.361Z,12.40
2023-03-06T11:22:49.272Z,9.07
2023-03-06T11:25:19.169Z,9.03
2023-03-06T11:27:48.745Z,9.73
2023-03-06T11:30:19.626Z,9.33
2023-03-06T11:32:50.609Z,9.73
2023-03-06T11:35:22.502Z,9.23
2023-03-06T11:37:54.348Z,8.10
2023-03-06T11:40:33.267Z,9.30
2023-03-06T11:43:05.622Z,8.37
2023-03-06T11:45:37.525Z,8.83
2023-03-06T11:48:14.180Z,10.00
2023-03-06T11:50:44.086Z,8.47
2023-03-06T11:53:14.467Z,8.37
2023-03-06T11:55:47.958Z,8.60
2023-03-06T11:58:30.660Z,7.33
2023-03-06T12:01:03.703Z,7.27
2023-03-06T12:03:47.335Z,7.47
2023-03-06T12:06:23.321Z,7.23
2023-03-06T12:09:12.919Z,7.43
2023-03-06T12:11:43.746Z,7.77
2023-03-06T12:14:23.933Z,6.53
2023-03-06T12:17:02.444Z,7.80
2023-03-06T12:19:38.065Z,7.33
2023-03-06T12:22:20.741Z,6.87
2023-03-06T12:25:06.536Z,7.73
2023-03-06T12:27:41.108Z,7.17
2023-03-06T12:30:27.188Z,7.37
2023-03-06T12:33:02.630Z,7.07
2023-03-06T12:35:44.688Z,6.60
2023-03-06T12:38:23.235Z,7.17
2023-03-06T12:40:59.593Z,6.77
2023-03-06T12:43:43.554Z,8.13
2023-03-06T12:46:14.003Z,8.30
2023-03-06T12:48:43.334Z,7.07
2023-03-06T12:51:13.092Z,6.63
2023-03-06T12:53:42.359Z,6.60
2023-03-06T12:56:10.523Z,6.50
2023-03-06T12:58:47.711Z,7.30
2023-03-06T13:01:20.173Z,5.47
2023-03-06T13:03:57.512Z,4.40
2023-03-06T13:06:50.210Z,6.77
2023-03-06T13:09:25.294Z,7.23
2023-03-06T13:12:04.075Z,7.73
2023-03-06T13:14:37.551Z,6.93
2023-03-06T13:17:22.161Z,7.03
2023-03-06T13:20:11.311Z,6.20
2023-03-06T13:22:39.688Z,5.77
2023-03-06T13:25:25.905Z,6.93
2023-03-06T13:28:03.379Z,6.67
2023-03-06T13:30:44.392Z,6.77
2023-03-06T13:33:27.112Z,7.00
2023-03-06T13:35:57.406Z,5.00
2023-03-06T13:38:32.340Z,7.20
2023-03-06T13:41:14.923Z,5.57
2023-03-06T13:43:45.406Z,7.23
2023-03-06T13:46:24.999Z,6.67
2023-03-06T13:49:04.936Z,5.87
2023-03-06T13:51:35.853Z,6.40
2023-03-06T13:54:22.081Z,4.60
2023-03-06T13:56:57.160Z,6.57
2023-03-06T13:59:36.079Z,5.23
2023-03-06T14:02:10.129Z,5.93
2023-03-06T14:04:39.685Z,5.07
2023-03-06T14:07:29.145Z,5.73
2023-03-06T14:10:15.651Z,11.63
2023-03-06T14:12:45.534Z,3.73
2023-03-06T14:15:16.653Z,2.90
2023-03-06T14:17:49.928Z,8.57
2023-03-06T14:20:20.150Z,6.57
2023-03-06T14:22:50.754Z,3.33
2023-03-06T14:25:21.822Z,3.03
2023-03-06T14:27:51.537Z,2.67
2023-03-06T14:30:24.227Z,3.13
2023-03-06T14:32:55.185Z,3.37
2023-03-06T14:35:24.826Z,2.97
2023-03-06T14:37:54.790Z,2.80
2023-03-06T14:40:29.169Z,2.90
2023-03-06T14:43:13.086Z,3.80
2023-03-06T14:45:49.921Z,2.97
2023-03-06T14:48:17.872Z,4.00
2023-03-06T14:50:48.917Z,4.10
2023-03-06T14:53:18.259Z,4.23
2023-03-06T14:55:50.618Z,4.57
2023-03-06T14:58:21.385Z,4.67
2023-03-06T15:00:51.404Z,3.87
2023-03-06T15:03:20.577Z,4.60
2023-03-06T15:05:48.791Z,4.43
2023-03-06T15:08:19.269Z,4.30
2023-03-06T15:10:57.939Z,4.70
2023-03-06T15:13:26.861Z,4.63
2023-03-06T15:15:59.143Z,4.07
2023-03-06T15:18:30.291Z,4.37
2023-03-06T15:21:08.026Z,4.00
2023-03-06T15:23:38.810Z,5.13
2023-03-06T15:26:20.346Z,4.80
2023-03-06T15:29:03.356Z,5.10
2023-03-06T15:31:37.106Z,4.50
2023-03-06T15:34:19.147Z,4.63
2023-03-06T15:36:48.214Z,3.63
2023-03-06T15:39:30.200Z,4.17
2023-03-06T15:41:59.996Z,3.90
2023-03-06T15:44:30.431Z,5.23
2023-03-06T15:47:08.395Z,4.03
2023-03-06T15:49:38.174Z,3.93
2023-03-06T15:52:06.193Z,4.60
2023-03-06T15:54:34.072Z,3.97
2023-03-06T15:57:13.273Z,3.40
2023-03-06T15:59:44.148Z,4.63
2023-03-06T16:02:15.035Z,3.57
2023-03-06T16:04:42.754Z,4.00
2023-03-06T16:07:10.797Z,3.53
2023-03-06T16:09:39.044Z,3.40
2023-03-06T16:12:13.207Z,3.27
2023-03-06T16:14:42.058Z,2.97
2023-03-06T16:17:11.779Z,3.63
2023-03-06T16:19:39.833Z,3.50
2023-03-06T16:22:07.859Z,3.77
2023-03-06T16:24:35.806Z,4.37
2023-03-06T16:27:03.721Z,4.23
2023-03-06T16:29:32.820Z,2.57
2023-03-06T16:32:01.937Z,3.27
2023-03-06T16:34:29.879Z,3.57
2023-03-06T16:36:58.061Z,3.90
2023-03-06T16:39:26.184Z,3.70
2023-03-06T16:41:54.430Z,4.23
2023-03-06T16:44:23.101Z,3.50
2023-03-06T16:46:52.220Z,3.60
2023-03-06T16:49:20.828Z,4.00
2023-03-06T16:51:48.790Z,3.13
2023-03-06T16:54:16.892Z,3.67
2023-03-06T16:56:45.903Z,4.10
2023-03-06T16:59:14.462Z,3.67
2023-03-06T17:01:44.396Z,3.37
2023-03-06T17:04:14.007Z,3.57
2023-03-06T17:06:43.348Z,4.27
2023-03-06T17:09:11.735Z,3.40
2023-03-06T17:11:39.755Z,4.67
2023-03-06T17:14:08.043Z,3.97
2023-03-06T17:16:37.214Z,3.70
2023-03-06T17:19:05.273Z,4.03
2023-03-06T17:21:35.740Z,4.10
2023-03-06T17:24:04.243Z,3.97
2023-03-06T17:26:32.035Z,4.30
2023-03-06T17:28:59.903Z,4.13
2023-03-06T17:31:28.607Z,3.47
2023-03-06T17:33:59.349Z,3.90
2023-03-06T17:36:29.951Z,4.10
2023-03-06T17:38:59.746Z,3.63
2023-03-06T17:41:28.046Z,3.33
2023-03-06T17:43:56.446Z,3.70
2023-03-06T17:46:24.283Z,4.03
2023-03-06T17:48:52.206Z,4.23
2023-03-06T17:51:19.870Z,3.43
2023-03-06T17:53:47.730Z,3.83
2023-03-06T17:56:16.937Z,3.80
2023-03-06T17:58:44.770Z,4.97
2023-03-06T18:01:13.253Z,3.77
2023-03-06T18:03:44.584Z,3.87
2023-03-06T18:06:12.702Z,3.80
2023-03-06T18:08:41.182Z,4.70
2023-03-06T18:11:10.658Z,3.90
2023-03-06T18:13:41.935Z,4.97
2023-03-06T18:16:12.098Z,4.27
2023-03-06T18:18:39.985Z,4.30
2023-03-06T18:21:09.235Z,4.13
2023-03-06T18:23:37.197Z,4.97
2023-03-06T18:26:09.906Z,4.60
2023-03-06T18:28:40.735Z,4.40
2023-03-06T18:31:15.660Z,5.20
2023-03-06T18:33:43.744Z,4.97
2023-03-06T18:36:12.011Z,5.40
2023-03-06T18:38:43.075Z,6.07
2023-03-06T18:41:13.309Z,5.70
2023-03-06T18:43:42.627Z,4.77
2023-03-06T18:46:10.947Z,5.50
2023-03-06T18:48:39.126Z,5.90
2023-03-06T18:51:08.651Z,5.03
2023-03-06T18:53:40.227Z,5.17
2023-03-06T18:56:08.750Z,6.17
2023-03-06T18:58:36.554Z,5.43
2023-03-06T19:01:11.348Z,5.33
2023-03-06T19:03:39.619Z,5.70
2023-03-06T19:06:08.647Z,5.80
2023-03-06T19:08:36.859Z,4.97
2023-03-06T19:11:05.561Z,4.77
2023-03-06T19:13:34.032Z,4.90
2023-03-06T19:16:02.376Z,4.90
2023-03-06T19:18:32.201Z,4.93
2023-03-06T19:21:08.538Z,5.27
2023-03-06T19:23:36.270Z,5.00
2023-03-06T19:26:04.549Z,5.10
2023-03-06T19:28:32.438Z,4.73
2023-03-06T19:31:00.387Z,6.03
2023-03-06T19:33:28.304Z,5.53
2023-03-06T19:35:58.714Z,5.57
2023-03-06T19:38:26.507Z,4.83
2023-03-06T19:40:54.604Z,5.10
2023-03-06T19:43:22.887Z,5.70
2023-03-06T19:45:51.091Z,4.67
2023-03-06T19:48:19.621Z,5.23
2023-03-06T19:50:48.682Z,4.80
2023-03-06T19:53:18.002Z,5.23
2023-03-06T19:55:45.894Z,4.80
2023-03-06T19:58:14.898Z,5.10
2023-03-06T20:00:42.987Z,5.27
2023-03-06T20:03:11.224Z,5.37
2023-03-06T20:05:46.263Z,5.23
2023-03-06T20:08:14.118Z,4.90
2023-03-06T20:10:45.529Z,5.30
2023-03-06T20:13:13.641Z,6.13
2023-03-06T20:15:41.939Z,7.30
2023-03-06T20:18:09.780Z,7.20
2023-03-06T20:20:40.445Z,7.50
2023-03-06T20:23:08.211Z,8.83
2023-03-06T20:25:36.702Z,7.17
2023-03-06T20:28:06.483Z,8.33
2023-03-06T20:30:38.363Z,7.13
2023-03-06T20:33:06.572Z,7.40
2023-03-06T20:35:34.607Z,7.20
2023-03-06T20:38:02.413Z,8.17
2023-03-06T20:40:30.703Z,6.40
2023-03-06T20:42:58.418Z,5.80
2023-03-06T20:45:28.134Z,4.03
2023-03-06T20:47:57.342Z,5.90
2023-03-06T20:50:25.762Z,8.13
2023-03-06T20:52:54.317Z,7.87
2023-03-06T20:55:22.227Z,9.93
2023-03-06T20:57:50.948Z,9.87
2023-03-06T21:00:19.233Z,9.80
2023-03-06T21:02:48.396Z,10.43
2023-03-06T21:05:16.390Z,10.30
2023-03-06T21:07:44.080Z,10.47
2023-03-06T21:10:12.382Z,11.07
2023-03-06T21:12:40.466Z,9.63
2023-03-06T21:15:09.566Z,9.80
2023-03-06T21:17:37.517Z,10.20
2023-03-06T21:20:07.536Z,10.13
2023-03-06T21:22:35.335Z,9.50
2023-03-06T21:25:04.524Z,10.27
2023-03-06T21:27:32.204Z,9.50
2023-03-06T21:29:59.898Z,11.93
2023-03-06T21:32:27.810Z,10.30
2023-03-06T21:34:55.613Z,10.90
2023-03-06T21:37:24.744Z,10.30
2023-03-06T21:39:52.785Z,11.30
2023-03-06T21:42:20.749Z,11.73
2023-03-06T21:44:49.097Z,10.70
2023-03-06T21:47:16.937Z,10.87
2023-03-06T21:49:45.097Z,9.07
2023-03-06T21:52:13.059Z,10.23
2023-03-06T21:54:42.239Z,9.90
2023-03-06T21:57:10.163Z,9.37
2023-03-06T21:59:38.232Z,10.37
2023-03-06T22:02:06.446Z,11.27
2023-03-06T22:04:34.080Z,11.07
2023-03-06T22:07:02.054Z,9.93
2023-03-06T22:09:29.815Z,9.03
2023-03-06T22:11:58.849Z,9.37
2023-03-06T22:14:27.235Z,8.97
2023-03-06T22:16:56.850Z,9.50
2023-03-06T22:19:26.173Z,4.30
2023-03-06T22:21:54.029Z,5.63
2023-03-06T22:24:22.248Z,4.80
2023-03-06T22:26:50.287Z,3.90
2023-03-06T22:29:19.767Z,3.80
2023-03-06T22:31:47.492Z,4.00
2023-03-06T22:34:15.189Z,4.13
2023-03-06T22:36:43.772Z,9.50
2023-03-06T22:39:17.031Z,8.90
2023-03-06T22:41:44.815Z,7.40
2023-03-06T22:44:17.186Z,7.23
2023-03-06T22:46:46.440Z,4.20
2023-03-06T22:49:14.965Z,6.80
2023-03-06T22:51:43.160Z,7.87
2023-03-06T22:54:11.246Z,6.80
2023-03-06T22:56:39.284Z,8.43
2023-03-06T22:59:09.832Z,9.00
2023-03-06T23:01:37.902Z,9.97
2023-03-06T23:04:11.400Z,10.27
2023-03-06T23:06:40.784Z,11.53
2023-03-06T23:09:09.476Z,11.83
2023-03-06T23:11:41.193Z,12.30
2023-03-06T23:14:09.946Z,16.50
2023-03-06T23:16:41.079Z,16.13
2023-03-06T23:19:10.469Z,15.93
2023-03-06T23:21:38.193Z,14.97
2023-03-06T23:24:06.930Z,15.30
2023-03-06T23:26:35.531Z,13.23
2023-03-06T23:29:04.454Z,13.77
2023-03-06T23:31:32.566Z,14.57
2023-03-06T23:34:01.601Z,13.13
2023-03-06T23:36:31.603Z,15.33
2023-03-06T23:38:59.434Z,13.33
2023-03-06T23:41:28.855Z,12.50
2023-03-06T23:43:56.627Z,11.07
2023-03-06T23:46:24.744Z,11.57
2023-03-06T23:48:52.731Z,10.23
2023-03-06T23:51:21.525Z,12.03
2023-03-06T23:53:54.364Z,10.43
2023-03-06T23:56:22.447Z,11.77
2023-03-06T23:58:50.389Z,11.93
